US-0393 weather

Public forecast

Using degrees Fahrenheit for public forecast. Weather courtesy of forecast.io.

Closest aviation weather report (METAR) to Elizabeth James Airport

Closest report is Altoona Blair County Airport, 16.2 nm (30.0 km) S. Retrieved 2020/08/12 10:53 UTC (46 minutes ago):

KAOO 121053Z AUTO 00000KT 3SM BR CLR 19/18 A3010 RMK AO2 SLP181 T01940183 TSNO

Closest aviation forecast (TAF) to Elizabeth James Airport

Closest forecast is Altoona Blair County Airport, 16.2 nm (30.0 km) S. Retrieved 2020/08/12 06:45 UTC (5 hours ago):

TAF KAOO 120543Z 1206/1306 00000KT P6SM SCT040 FM120800 VRB02KT 4SM BR SCT035 FM121300 01003KT P6SM SCT025 FM121700 02004KT P6SM VCSH BKN050 FM130000 05003KT P6SM SCT050